Time;durP1;ratioP1;P1;durP2;ratioP2;P2;SDS_P1;SDS_P2;PMS_P1;PMS_P2;Temp;Humidity;BMP_temperature;BMP_pressure;BME280_temperature;BME280_humidity;BME280_pressure;Samples;Min_cycle;Max_cycle;Signal;HPM_P1;HPM_P2
2022/07/28 00:01:36;;;;;;;6.50;4.57;;;;;;;21.15;100.00;90950.09;5012856;28;20510;-70
2022/07/28 00:04:01;;;;;;;7.95;4.40;;;;;;;21.03;100.00;90951.13;5012807;28;20030;-70
2022/07/28 00:06:26;;;;;;;4.75;3.60;;;;;;;21.01;100.00;90947.25;5012682;28;20460;-70
2022/07/28 00:08:53;;;;;;;7.35;3.85;;;;;;;20.87;100.00;90940.56;5012640;28;20022;-70
2022/07/28 00:11:19;;;;;;;6.25;4.00;;;;;;;20.82;100.00;90937.38;5012530;28;20029;-70
2022/07/28 00:13:44;;;;;;;6.78;4.35;;;;;;;20.79;100.00;90940.84;5012688;28;20401;-71
2022/07/28 00:16:10;;;;;;;6.65;4.10;;;;;;;20.71;100.00;90940.00;5012664;28;20104;-71
2022/07/28 00:18:35;;;;;;;6.70;4.50;;;;;;;20.61;100.00;90957.63;5012523;28;20089;-71
2022/07/28 00:21:01;;;;;;;6.40;4.32;;;;;;;20.38;100.00;90948.84;5012589;28;20037;-71
2022/07/28 00:23:27;;;;;;;8.43;4.75;;;;;;;20.24;100.00;90957.56;5012513;28;20108;-70
2022/07/28 00:25:52;;;;;;;6.40;4.53;;;;;;;20.15;100.00;90953.56;5012527;28;20030;-70
2022/07/28 00:28:18;;;;;;;6.43;4.43;;;;;;;20.20;100.00;90948.63;5012520;28;20022;-70
2022/07/28 00:30:43;;;;;;;5.85;4.22;;;;;;;20.19;100.00;90948.97;5012470;28;20101;-70
2022/07/28 00:33:09;;;;;;;5.65;4.43;;;;;;;20.21;100.00;90946.72;5012355;28;20037;-71
2022/07/28 00:35:35;;;;;;;7.22;4.28;;;;;;;20.21;100.00;90939.38;5012305;28;20041;-70
2022/07/28 00:38:00;;;;;;;7.10;4.43;;;;;;;20.30;100.00;90934.47;5012441;28;20026;-71
2022/07/28 00:41:09;;;;;;;6.45;4.80;;;;;;;20.37;100.00;90939.19;5012238;28;20084;-71
2022/07/28 00:43:11;;;;;;;6.22;4.63;;;;;;;20.24;100.00;90929.78;5011927;28;20515;-70
2022/07/28 00:45:37;;;;;;;5.78;4.28;;;;;;;20.15;100.00;90926.56;5012115;28;20054;-69
2022/07/28 00:48:02;;;;;;;5.60;4.55;;;;;;;20.12;100.00;90933.47;5011996;28;20451;-70
2022/07/28 00:50:28;;;;;;;4.30;3.70;;;;;;;19.97;100.00;90921.69;5011932;28;20062;-70
2022/07/28 00:52:54;;;;;;;6.05;4.50;;;;;;;19.94;100.00;90922.44;5011843;28;20029;-69
2022/07/28 00:55:22;;;;;;;5.72;4.03;;;;;;;19.93;100.00;90926.28;5011945;28;20517;-70
2022/07/28 00:57:47;;;;;;;6.25;4.57;;;;;;;20.03;100.00;90920.22;5011948;28;20092;-70
2022/07/28 01:00:13;;;;;;;5.35;4.38;;;;;;;20.10;100.00;90921.47;5011890;28;20475;-70
2022/07/28 01:02:40;;;;;;;5.88;4.30;;;;;;;20.26;100.00;90920.16;5011770;28;20022;-71
2022/07/28 01:05:05;;;;;;;7.03;4.72;;;;;;;20.30;100.00;90914.78;5011608;28;20057;-70
2022/07/28 01:07:56;;;;;;;5.53;4.10;;;;;;;20.12;100.00;90911.09;5011680;28;20104;-70
2022/07/28 01:10:44;;;;;;;7.53;4.80;;;;;;;19.94;100.00;90914.34;5011592;28;20472;-70
2022/07/28 01:13:21;;;;;;;6.97;4.50;;;;;;;19.88;100.00;90910.41;5011746;28;20056;-70
2022/07/28 01:16:16;;;;;;;7.43;4.72;;;;;;;19.83;100.00;90910.72;5011574;28;20088;-70
2022/07/28 01:18:48;;;;;;;7.88;4.78;;;;;;;19.74;100.00;90896.72;5002870;28;20030;-70
2022/07/28 01:21:24;;;;;;;7.53;4.95;;;;;;;19.71;100.00;90892.81;5010630;28;20038;-70
2022/07/28 01:24:12;;;;;;;7.47;5.07;;;;;;;19.66;100.00;90898.53;5011370;28;20475;-71
2022/07/28 01:26:44;;;;;;;8.32;5.55;;;;;;;19.53;100.00;90894.44;5011342;28;20376;-71
2022/07/28 01:29:29;;;;;;;9.52;5.68;;;;;;;19.44;100.00;90900.13;5011369;28;20121;-71
2022/07/28 01:32:09;;;;;;;7.32;5.57;;;;;;;19.39;100.00;90894.25;5011255;28;20034;-72
2022/07/28 01:34:51;;;;;;;7.75;5.18;;;;;;;19.35;100.00;90901.50;5011374;28;20112;-71
2022/07/28 01:37:23;;;;;;;7.10;5.47;;;;;;;19.22;100.00;90895.53;5011537;28;20045;-72
2022/07/28 01:39:53;;;;;;;8.90;5.45;;;;;;;19.19;100.00;90898.16;5011305;28;20022;-71
2022/07/28 01:42:23;;;;;;;7.18;5.57;;;;;;;19.10;100.00;90901.13;5011120;28;20040;-71
2022/07/28 01:44:50;;;;;;;7.28;5.60;;;;;;;19.07;100.00;90893.75;5011266;28;20029;-71
2022/07/28 01:47:18;;;;;;;6.60;4.90;;;;;;;19.05;100.00;90893.31;5011151;28;20488;-71
2022/07/28 01:49:45;;;;;;;8.82;5.57;;;;;;;19.15;100.00;90906.22;5011456;28;20037;-71
2022/07/28 01:52:12;;;;;;;10.43;5.40;;;;;;;19.12;100.00;90905.03;5011080;28;20038;-71
2022/07/28 01:54:41;;;;;;;8.43;5.20;;;;;;;19.19;100.00;90915.13;5011128;28;20566;-72
2022/07/28 01:57:09;;;;;;;7.30;5.28;;;;;;;19.26;100.00;90907.16;5011022;28;20025;-72
2022/07/28 01:59:37;;;;;;;8.30;5.72;;;;;;;19.27;100.00;90903.31;5011111;28;20165;-71
2022/07/28 02:02:04;;;;;;;7.65;5.55;;;;;;;19.21;100.00;90893.97;5010915;28;20034;-71
2022/07/28 02:04:32;;;;;;;8.07;5.47;;;;;;;19.27;100.00;90908.72;5010605;28;20041;-71
2022/07/28 02:07:00;;;;;;;7.63;5.40;;;;;;;19.28;100.00;90912.97;5011004;28;20109;-71
2022/07/28 02:09:26;;;;;;;10.25;6.22;;;;;;;19.17;100.00;90922.81;5011026;28;20034;-71
2022/07/28 02:11:54;;;;;;;8.05;5.80;;;;;;;18.98;100.00;90925.56;5010868;28;20033;-71
2022/07/28 02:14:24;;;;;;;9.80;6.53;;;;;;;18.92;100.00;90930.47;5010907;28;20041;-70
2022/07/28 02:17:00;;;;;;;9.75;6.50;;;;;;;18.76;100.00;90935.97;5010859;28;20056;-70
2022/07/28 02:19:28;;;;;;;8.48;6.30;;;;;;;18.63;100.00;90926.50;5010835;28;20045;-71
2022/07/28 02:21:55;;;;;;;9.48;6.55;;;;;;;18.55;100.00;90930.16;5010841;28;20026;-71
2022/07/28 02:24:26;;;;;;;11.85;7.25;;;;;;;18.44;100.00;90929.19;5010824;28;20042;-70
2022/07/28 02:27:02;;;;;;;9.57;6.97;;;;;;;18.39;100.00;90937.56;5009556;28;20056;-71
2022/07/28 02:29:32;;;;;;;9.30;7.32;;;;;;;18.31;100.00;90933.19;5009549;28;20030;-71
2022/07/28 02:32:13;;;;;;;13.73;8.15;;;;;;;18.37;100.00;90942.53;5010611;28;20022;-70
2022/07/28 02:34:41;;;;;;;12.23;8.38;;;;;;;18.37;100.00;90945.22;5014441;28;20030;-70
2022/07/28 02:37:08;;;;;;;15.70;9.27;;;;;;;18.28;100.00;90948.09;5014384;28;20111;-70
2022/07/28 02:39:44;;;;;;;11.05;8.23;;;;;;;18.20;100.00;90951.81;5014622;28;20415;-71
2022/07/28 02:42:17;;;;;;;15.05;9.40;;;;;;;18.19;100.00;90947.56;5014269;28;20033;-71
2022/07/28 02:44:48;;;;;;;12.93;8.57;;;;;;;18.16;100.00;90956.34;5014372;28;20034;-70
2022/07/28 02:47:17;;;;;;;18.45;10.57;;;;;;;18.13;100.00;90957.81;5014298;28;20057;-70
2022/07/28 02:49:45;;;;;;;16.60;10.90;;;;;;;18.17;100.00;90952.53;5014250;28;20038;-70
2022/07/28 02:52:12;;;;;;;16.73;9.82;;;;;;;18.22;100.00;90961.09;5014023;28;20515;-71
2022/07/28 02:54:40;;;;;;;17.50;10.88;;;;;;;18.24;100.00;90972.28;5014092;28;20495;-70
2022/07/28 02:57:06;;;;;;;17.95;10.95;;;;;;;18.13;100.00;90973.97;5014105;28;20087;-70
2022/07/28 02:59:34;;;;;;;17.17;10.70;;;;;;;18.11;100.00;90987.00;5014129;28;20528;-70
2022/07/28 03:02:00;;;;;;;22.40;10.98;;;;;;;18.05;100.00;90988.44;5012626;28;20026;-70
2022/07/28 03:07:10;;;;;;;17.30;11.80;;;;;;;17.87;100.00;90998.03;5014254;28;20107;-70
2022/07/28 03:09:40;;;;;;;19.15;11.35;;;;;;;17.80;100.00;91011.31;5164120;22;20141;-70
2022/07/28 03:12:06;;;;;;;20.63;12.40;;;;;;;17.88;100.00;91015.75;5014014;28;20511;-70
2022/07/28 03:14:32;;;;;;;21.50;12.02;;;;;;;17.86;100.00;91021.47;5013897;28;20034;-70
2022/07/28 03:16:57;;;;;;;19.08;11.18;;;;;;;17.84;100.00;91020.25;5013883;28;20048;-70
2022/07/28 03:19:23;;;;;;;17.25;10.68;;;;;;;17.77;100.00;91025.47;5013815;28;20506;-70
2022/07/28 03:21:51;;;;;;;18.30;10.05;;;;;;;17.77;100.00;91020.88;5013767;28;20041;-70
2022/07/28 03:24:23;;;;;;;16.42;9.55;;;;;;;17.75;100.00;91025.81;5013612;28;20042;-69
2022/07/28 03:27:03;;;;;;;17.25;10.52;;;;;;;17.77;100.00;91022.78;5013944;28;20029;-70
2022/07/28 03:29:31;;;;;;;17.90;10.73;;;;;;;17.80;100.00;91027.47;5013531;28;20065;-69
2022/07/28 03:31:58;;;;;;;17.55;10.30;;;;;;;17.76;100.00;91023.91;5013709;28;20123;-70
2022/07/28 03:34:24;;;;;;;21.38;10.40;;;;;;;17.83;100.00;91030.25;5013432;28;20040;-70
2022/07/28 03:36:56;;;;;;;16.35;9.88;;;;;;;17.82;100.00;91033.25;5013501;28;20030;-70
2022/07/28 03:39:23;;;;;;;15.88;10.27;;;;;;;17.78;100.00;91033.19;5013288;28;20026;-70
2022/07/28 03:41:51;;;;;;;15.93;10.13;;;;;;;17.77;100.00;91039.69;5013043;28;20030;-69
2022/07/28 03:44:17;;;;;;;16.85;10.15;;;;;;;17.83;100.00;91045.59;5012258;28;20030;-70
2022/07/28 03:46:44;;;;;;;16.83;9.80;;;;;;;17.76;100.00;91048.13;5013152;28;20044;-71
2022/07/28 03:49:09;;;;;;;17.92;10.00;;;;;;;17.75;100.00;91051.94;5012992;28;20030;-70
2022/07/28 03:51:35;;;;;;;19.42;8.70;;;;;;;17.69;100.00;91048.75;5013104;28;20029;-74
2022/07/28 03:54:00;;;;;;;16.33;9.48;;;;;;;17.61;100.00;91044.28;5013016;28;20460;-72
2022/07/28 03:56:26;;;;;;;17.58;10.43;;;;;;;17.54;100.00;91052.97;5012705;28;20037;-71
2022/07/28 03:58:51;;;;;;;16.02;9.57;;;;;;;17.50;100.00;91054.78;5012703;28;20025;-71
2022/07/28 04:01:17;;;;;;;15.48;8.55;;;;;;;17.48;100.00;91059.72;5012879;28;20121;-71
2022/07/28 04:03:43;;;;;;;13.98;9.15;;;;;;;17.39;100.00;91056.44;5012477;28;20018;-70
2022/07/28 04:06:09;;;;;;;16.58;9.55;;;;;;;17.44;100.00;91060.78;5012776;28;20056;-72
2022/07/28 04:08:34;;;;;;;18.38;9.88;;;;;;;17.41;100.00;91054.19;5012611;28;20030;-70
2022/07/28 04:11:00;;;;;;;18.08;10.55;;;;;;;17.28;100.00;91056.16;5012533;28;20466;-71
2022/07/28 04:13:25;;;;;;;16.60;9.73;;;;;;;17.28;100.00;91050.00;5012639;28;20026;-71
2022/07/28 04:15:51;;;;;;;16.85;9.95;;;;;;;17.39;100.00;91053.75;5012466;28;20498;-70
2022/07/28 04:18:17;;;;;;;24.67;14.23;;;;;;;17.52;100.00;91051.78;5012197;28;20037;-71
2022/07/28 04:20:42;;;;;;;16.35;9.95;;;;;;;17.53;100.00;91046.03;5012356;28;20146;-70
2022/07/28 04:23:08;;;;;;;18.90;10.05;;;;;;;17.57;100.00;91054.97;5012675;28;20527;-70
2022/07/28 04:25:33;;;;;;;17.52;9.60;;;;;;;17.60;100.00;91048.88;5006336;28;20101;-70
2022/07/28 04:28:01;;;;;;;16.48;9.43;;;;;;;17.65;100.00;91037.06;4992816;28;20037;-71
2022/07/28 04:30:27;;;;;;;16.17;9.60;;;;;;;17.65;100.00;91037.84;5010910;28;20037;-71
2022/07/28 04:32:54;;;;;;;15.65;9.05;;;;;;;17.54;100.00;91036.84;5012321;28;20033;-70
2022/07/28 04:35:23;;;;;;;18.40;10.25;;;;;;;17.66;100.00;91028.66;5012126;28;20091;-70
2022/07/28 04:37:48;;;;;;;15.30;9.85;;;;;;;17.81;100.00;91029.78;5012086;28;20026;-71
2022/07/28 04:40:15;;;;;;;16.17;10.02;;;;;;;17.92;100.00;91032.75;5012025;28;20101;-70
2022/07/28 04:42:41;;;;;;;15.68;8.93;;;;;;;17.80;100.00;91011.31;5012120;28;20510;-71
2022/07/28 04:45:10;;;;;;;18.92;10.25;;;;;;;17.67;100.00;90994.47;5012046;28;20022;-72
2022/07/28 04:47:35;;;;;;;17.60;10.95;;;;;;;17.89;100.00;91001.94;5011996;28;20495;-71
2022/07/28 04:50:01;;;;;;;19.38;10.75;;;;;;;18.00;100.00;90998.69;5011901;28;20026;-72
2022/07/28 04:52:27;;;;;;;18.48;10.93;;;;;;;18.07;100.00;90986.16;5012003;28;20041;-71
2022/07/28 04:54:53;;;;;;;19.90;10.75;;;;;;;18.05;100.00;90945.34;5011935;28;20025;-71
2022/07/28 04:57:19;;;;;;;16.67;9.93;;;;;;;18.14;100.00;90902.81;5011958;28;20034;-71
2022/07/28 04:59:44;;;;;;;18.77;10.00;;;;;;;18.20;100.00;90904.13;5011745;28;20121;-71
2022/07/28 05:02:11;;;;;;;13.98;9.32;;;;;;;18.09;100.00;90919.28;5011861;28;20109;-72
2022/07/28 05:04:37;;;;;;;15.52;9.13;;;;;;;18.24;100.00;90920.34;5011775;28;20053;-71
2022/07/28 05:07:04;;;;;;;31.27;17.38;;;;;;;18.33;100.00;90933.59;5011669;28;20412;-71
2022/07/28 05:09:30;;;;;;;15.68;10.25;;;;;;;18.31;100.00;90935.88;5011620;28;20129;-71
2022/07/28 05:11:55;;;;;;;64.20;37.50;;;;;;;18.30;100.00;90951.22;5011946;28;20068;-71
2022/07/28 05:14:21;;;;;;;18.13;10.77;;;;;;;18.21;100.00;90943.38;5011535;28;20116;-70
2022/07/28 05:16:46;;;;;;;27.70;14.93;;;;;;;18.16;100.00;90943.66;5011691;28;20045;-71
2022/07/28 05:19:12;;;;;;;15.63;9.88;;;;;;;18.10;100.00;90917.38;5011389;28;20033;-71
2022/07/28 05:21:37;;;;;;;15.55;9.73;;;;;;;18.21;100.00;90927.22;5010271;28;20407;-71
2022/07/28 05:24:03;;;;;;;14.98;9.65;;;;;;;18.24;100.00;90941.88;5010273;28;20037;-72
2022/07/28 05:26:31;;;;;;;18.13;10.55;;;;;;;18.28;100.00;90910.41;5011491;28;20630;-71
2022/07/28 05:28:56;;;;;;;20.15;11.27;;;;;;;18.35;100.00;90918.63;5011342;28;20022;-71
2022/07/28 05:31:22;;;;;;;17.38;10.75;;;;;;;18.35;100.00;90920.56;5010131;28;20044;-71
2022/07/28 05:33:47;;;;;;;15.55;9.85;;;;;;;18.44;100.00;90916.50;5011400;28;20077;-70
2022/07/28 05:36:13;;;;;;;15.73;8.90;;;;;;;18.59;100.00;90920.22;5011357;28;20494;-72
2022/07/28 05:38:38;;;;;;;18.95;11.40;;;;;;;18.77;100.00;90926.75;5011122;28;20025;-71
2022/07/28 05:41:05;;;;;;;12.45;8.27;;;;;;;18.77;100.00;90910.56;5011252;28;20495;-71
2022/07/28 05:43:31;;;;;;;15.50;8.93;;;;;;;18.73;100.00;90896.25;5011211;28;20033;-70
2022/07/28 05:45:56;;;;;;;17.98;9.50;;;;;;;18.98;100.00;90906.69;5011200;28;20096;-71
2022/07/28 05:48:22;;;;;;;17.00;9.38;;;;;;;19.39;100.00;90908.50;5011040;28;20034;-71
2022/07/28 05:50:48;;;;;;;13.25;9.13;;;;;;;19.84;100.00;90906.88;5011217;28;20046;-71
2022/07/28 05:53:14;;;;;;;15.27;9.63;;;;;;;20.36;100.00;90916.03;5011469;28;20040;-72
2022/07/28 05:55:40;;;;;;;14.70;8.25;;;;;;;20.42;100.00;90897.59;5011224;28;20392;-71
2022/07/28 05:58:05;;;;;;;14.05;9.32;;;;;;;20.84;100.00;90902.66;5011055;28;20026;-70
2022/07/28 06:00:32;;;;;;;11.25;8.05;;;;;;;21.35;100.00;90907.41;5011392;28;20109;-70
2022/07/28 06:03:00;;;;;;;12.13;8.65;;;;;;;22.10;100.00;90905.97;5011144;28;20517;-72
2022/07/28 06:05:27;;;;;;;12.75;8.70;;;;;;;23.24;100.00;90906.34;5011325;28;20030;-70
2022/07/28 06:07:52;;;;;;;11.38;7.25;;;;;;;23.46;100.00;90901.69;5012481;28;20042;-70
2022/07/28 06:10:20;;;;;;;12.35;7.20;;;;;;;23.99;100.00;90901.69;5014713;28;20042;-70
2022/07/28 06:12:48;;;;;;;7.78;5.93;;;;;;;26.08;100.00;90900.94;5014974;28;20052;-71
2022/07/28 06:15:15;;;;;;;8.32;5.38;;;;;;;27.22;88.36;90903.16;5014927;28;20029;-70
2022/07/28 06:17:41;;;;;;;9.35;6.57;;;;;;;27.52;82.89;90905.06;5014812;28;20034;-71
2022/07/28 06:20:08;;;;;;;7.38;5.30;;;;;;;27.19;82.78;90911.38;5014692;28;20108;-71
2022/07/28 06:22:45;;;;;;;7.35;5.55;;;;;;;26.76;85.74;90901.00;5014799;28;20030;-72
2022/07/28 06:25:15;;;;;;;6.53;4.68;;;;;;;26.98;88.02;90899.53;5014768;28;20113;-71
2022/07/28 06:27:41;;;;;;;6.68;5.45;;;;;;;27.05;85.20;90907.66;5014712;28;20057;-71
2022/07/28 06:30:08;;;;;;;6.78;5.47;;;;;;;29.23;72.23;90924.69;5013221;28;20126;-71
2022/07/28 06:32:33;;;;;;;7.35;6.00;;;;;;;28.87;67.65;90927.38;5014617;28;20040;-71
2022/07/28 06:34:59;;;;;;;9.13;5.97;;;;;;;28.88;70.28;90920.72;5014566;28;20108;-71
2022/07/28 06:37:24;;;;;;;8.05;6.00;;;;;;;29.29;73.20;90922.22;5014459;28;20026;-72
2022/07/28 06:39:50;;;;;;;9.98;7.72;;;;;;;30.48;71.17;90915.53;5014442;28;20026;-72
2022/07/28 06:42:15;;;;;;;11.73;7.38;;;;;;;31.02;65.87;90914.88;5014650;28;20549;-71
2022/07/28 06:44:41;;;;;;;8.65;6.47;;;;;;;30.22;66.84;90920.13;5014449;28;20464;-71
2022/07/28 06:47:06;;;;;;;8.65;6.90;;;;;;;32.29;60.31;90921.28;5014348;28;20026;-70
2022/07/28 06:49:31;;;;;;;8.13;6.70;;;;;;;32.60;56.32;90917.91;5014495;28;20447;-71
2022/07/28 06:51:57;;;;;;;9.18;6.90;;;;;;;33.04;55.67;90925.03;5014245;28;20543;-70
2022/07/28 06:54:22;;;;;;;9.20;6.80;;;;;;;33.26;54.06;90932.50;5014118;28;20562;-71
2022/07/28 06:56:48;;;;;;;8.73;6.65;;;;;;;33.24;53.46;90932.97;5014068;28;20125;-70
2022/07/28 06:59:14;;;;;;;7.78;6.63;;;;;;;31.22;57.87;90918.25;5013773;28;20021;-69
2022/07/28 07:01:40;;;;;;;7.03;5.72;;;;;;;31.73;57.99;90923.84;5014033;28;20034;-70
2022/07/28 07:04:07;;;;;;;7.70;6.13;;;;;;;30.28;59.55;90921.91;5014102;28;20041;-70
2022/07/28 07:06:32;;;;;;;8.60;6.45;;;;;;;29.88;62.47;90920.53;5014032;28;20578;-70
2022/07/28 07:08:58;;;;;;;9.50;6.43;;;;;;;30.27;61.59;90925.09;5013772;28;20137;-71
2022/07/28 07:11:23;;;;;;;8.40;6.38;;;;;;;32.10;57.43;90922.28;5014040;28;20080;-69
2022/07/28 07:13:49;;;;;;;8.82;6.85;;;;;;;32.73;54.40;90927.66;5013938;28;20498;-70
2022/07/28 07:16:15;;;;;;;8.88;6.95;;;;;;;33.83;53.27;90936.69;5013847;28;20025;-68
2022/07/28 07:18:40;;;;;;;9.43;7.18;;;;;;;33.06;54.54;90927.31;5013072;28;20121;-70
2022/07/28 07:21:06;;;;;;;8.80;6.70;;;;;;;32.84;54.44;90937.56;5013153;28;20129;-68
2022/07/28 07:23:31;;;;;;;9.45;7.07;;;;;;;30.94;61.29;90934.31;5013861;28;20029;-70
2022/07/28 07:25:57;;;;;;;8.55;6.68;;;;;;;32.72;59.32;90936.38;5013407;28;20048;-70
2022/07/28 07:28:23;;;;;;;9.63;7.07;;;;;;;34.03;55.00;90936.34;5013242;28;20041;-70
2022/07/28 07:30:48;;;;;;;11.27;7.93;;;;;;;35.52;50.69;90939.66;5013713;28;20037;-71
2022/07/28 07:33:14;;;;;;;14.82;7.97;;;;;;;36.17;47.73;90927.16;5013616;28;20030;-69
2022/07/28 07:35:40;;;;;;;9.57;7.93;;;;;;;36.64;46.14;90937.56;5013518;28;20055;-68
2022/07/28 07:38:05;;;;;;;10.63;7.95;;;;;;;37.64;45.20;90938.03;5013399;28;20057;-69
2022/07/28 07:40:31;;;;;;;10.13;7.68;;;;;;;37.40;44.93;90933.34;5013777;28;20030;-66
2022/07/28 07:42:56;;;;;;;7.70;6.85;;;;;;;38.69;43.27;90938.25;5013549;28;20036;-66
2022/07/28 07:45:22;;;;;;;9.82;7.90;;;;;;;36.32;46.65;90941.88;5013353;28;20499;-66
2022/07/28 07:47:47;;;;;;;11.13;8.25;;;;;;;35.56;47.75;90943.00;5013309;28;20030;-67
2022/07/28 07:50:13;;;;;;;9.90;8.27;;;;;;;35.25;48.97;90938.41;5013224;28;20064;-66
2022/07/28 07:52:38;;;;;;;11.13;8.10;;;;;;;34.94;48.64;90940.56;5013249;28;20052;-66
2022/07/28 07:55:04;;;;;;;15.27;9.35;;;;;;;34.91;49.56;90944.25;5013118;28;20057;-66
2022/07/28 07:57:30;;;;;;;8.32;6.32;;;;;;;34.06;48.89;90946.47;5013254;28;20037;-66
2022/07/28 07:59:55;;;;;;;8.60;5.88;;;;;;;34.84;45.92;90953.59;5013008;28;20033;-66
2022/07/28 08:02:20;;;;;;;17.35;7.85;;;;;;;33.99;49.75;90955.03;5013047;28;20480;-66
2022/07/28 08:04:46;;;;;;;13.18;6.65;;;;;;;34.91;48.51;90960.84;5012996;28;20519;-66
2022/07/28 08:07:11;;;;;;;8.98;6.68;;;;;;;33.49;50.19;90962.44;5012925;28;20033;-66
2022/07/28 08:09:37;;;;;;;7.97;5.53;;;;;;;32.71;52.93;90967.91;5012602;28;20404;-66
2022/07/28 08:12:03;;;;;;;8.95;5.97;;;;;;;33.09;52.92;90964.25;5012805;28;20014;-66
2022/07/28 08:14:28;;;;;;;10.13;5.85;;;;;;;33.75;48.93;90971.28;5012726;28;20033;-68
2022/07/28 08:16:55;;;;;;;6.97;5.13;;;;;;;35.54;44.84;90970.38;5012737;28;20025;-67
2022/07/28 08:19:21;;;;;;;5.85;4.95;;;;;;;35.64;43.54;90969.13;5012723;28;20052;-66
2022/07/28 08:21:46;;;;;;;9.05;5.82;;;;;;;35.39;46.32;90973.78;5012519;28;20033;-67
2022/07/28 08:24:11;;;;;;;8.02;6.03;;;;;;;36.72;44.54;90977.53;5012514;28;20057;-66
2022/07/28 08:26:37;;;;;;;5.82;4.97;;;;;;;37.34;43.47;90982.41;5012493;28;20487;-67
2022/07/28 08:29:03;;;;;;;5.47;4.65;;;;;;;36.94;43.25;90987.63;5012682;28;20037;-66
2022/07/28 08:31:28;;;;;;;6.35;5.35;;;;;;;36.58;43.07;90981.00;5012247;28;20022;-67
2022/07/28 08:33:54;;;;;;;7.05;5.22;;;;;;;37.59;42.83;90981.13;5012297;28;20026;-67
2022/07/28 08:36:20;;;;;;;5.30;4.60;;;;;;;38.05;41.86;90989.78;5012328;28;20030;-67
2022/07/28 08:38:45;;;;;;;5.97;4.50;;;;;;;37.34;42.80;90992.72;5012156;28;20112;-66
2022/07/28 08:41:25;;;;;;;6.05;4.90;;;;;;;36.81;43.76;90990.63;5012193;28;20168;-67
2022/07/28 08:43:51;;;;;;;5.78;5.18;;;;;;;36.44;42.31;90993.53;5012440;28;20107;-67
2022/07/28 08:46:19;;;;;;;5.97;5.40;;;;;;;36.93;42.68;90989.63;5012161;28;20022;-66
2022/07/28 08:48:46;;;;;;;5.60;4.68;;;;;;;36.91;42.88;90994.09;5011979;28;20045;-66
2022/07/28 08:51:12;;;;;;;8.48;4.60;;;;;;;38.97;38.69;90997.03;5012091;28;20030;-66
2022/07/28 08:53:39;;;;;;;6.45;4.80;;;;;;;37.30;40.32;90992.16;5012289;28;20049;-65
2022/07/28 08:56:07;;;;;;;7.13;5.20;;;;;;;34.41;42.98;90999.56;5010121;28;20025;-67
2022/07/28 08:58:34;;;;;;;5.30;4.40;;;;;;;31.61;49.96;91005.09;5009829;28;20518;-66
2022/07/28 09:01:00;;;;;;;6.50;4.90;;;;;;;30.27;52.80;90997.22;5026431;28;20034;-65
2022/07/28 09:03:27;;;;;;;6.10;5.40;;;;;;;30.58;53.39;91002.34;5011572;28;20072;-65
2022/07/28 09:05:54;;;;;;;6.50;5.38;;;;;;;30.89;54.52;91005.50;5011734;28;20145;-65
2022/07/28 09:08:20;;;;;;;6.78;5.07;;;;;;;30.25;53.73;90996.88;5011176;28;20049;-67
2022/07/28 09:10:47;;;;;;;14.40;5.75;;;;;;;31.61;52.42;91010.59;5011416;28;20046;-65
2022/07/28 09:13:13;;;;;;;5.72;5.05;;;;;;;30.58;54.89;91008.59;5011591;28;20488;-69
2022/07/28 09:15:39;;;;;;;5.25;4.72;;;;;;;28.79;61.43;91018.28;5011377;28;20033;-70
2022/07/28 09:18:05;;;;;;;7.38;5.53;;;;;;;27.95;67.09;91005.59;5011245;28;20139;-70
2022/07/28 09:20:30;;;;;;;7.15;5.68;;;;;;;27.31;72.39;91003.72;5011324;28;20034;-69
2022/07/28 09:23:01;;;;;;;6.32;5.35;;;;;;;26.97;76.04;91018.13;5011352;28;20042;-71
2022/07/28 09:25:28;;;;;;;9.43;5.97;;;;;;;26.63;80.80;91017.31;5010961;28;20088;-71
2022/07/28 09:27:54;;;;;;;6.43;5.07;;;;;;;26.08;85.71;91018.19;5011184;28;20044;-70
2022/07/28 09:30:30;;;;;;;7.55;5.53;;;;;;;25.89;90.83;91024.94;5011063;28;20045;-70
2022/07/28 09:33:22;;;;;;;7.28;5.70;;;;;;;25.78;100.00;91025.00;5011252;28;20057;-68
2022/07/28 09:35:55;;;;;;;9.27;5.30;;;;;;;24.95;100.00;91014.91;5011122;28;20044;-73
2022/07/28 09:38:23;;;;;;;7.35;4.97;;;;;;;24.34;100.00;91019.72;5010549;28;20038;-72
2022/07/28 09:40:58;;;;;;;8.75;5.53;;;;;;;24.05;100.00;91011.53;5009791;28;20116;-70
2022/07/28 09:43:37;;;;;;;9.88;6.03;;;;;;;24.47;100.00;91012.69;5010315;28;20033;-73
2022/07/28 09:46:11;;;;;;;10.23;5.40;;;;;;;24.90;100.00;91009.84;5011109;28;20065;-70
2022/07/28 09:48:57;;;;;;;5.53;4.70;;;;;;;25.98;100.00;90998.78;5010987;28;20521;-70
2022/07/28 09:51:29;;;;;;;12.63;5.78;;;;;;;28.39;100.00;90998.25;5011110;28;20041;-69
2022/07/28 09:54:09;;;;;;;6.70;4.90;;;;;;;33.66;64.29;91001.63;5010718;28;20049;-72
2022/07/28 09:56:40;;;;;;;6.20;5.03;;;;;;;36.16;55.38;91009.50;5011051;28;20045;-69
2022/07/28 09:59:07;;;;;;;6.43;4.85;;;;;;;37.26;51.19;91013.75;5011042;28;20041;-69
2022/07/28 10:01:33;;;;;;;6.63;4.72;;;;;;;38.87;46.73;91012.31;5011213;28;20038;-69
2022/07/28 10:04:00;;;;;;;3.97;3.58;;;;;;;37.06;44.29;91006.78;5011260;28;20104;-69
2022/07/28 10:06:30;;;;;;;5.75;4.40;;;;;;;34.69;50.88;91014.22;5010954;28;20057;-71
2022/07/28 10:08:58;;;;;;;5.40;4.47;;;;;;;32.82;54.91;91012.41;5010249;28;20046;-68
2022/07/28 10:11:27;;;;;;;6.25;4.80;;;;;;;31.08;57.91;91001.84;5010904;28;20105;-69
2022/07/28 10:14:04;;;;;;;6.30;4.97;;;;;;;30.09;59.34;91005.88;5010910;28;20538;-68
2022/07/28 10:16:32;;;;;;;7.68;5.47;;;;;;;29.43;69.64;91003.38;5010796;28;20038;-67
2022/07/28 10:18:59;;;;;;;6.60;5.32;;;;;;;28.63;79.81;91008.00;5010662;28;20034;-70
2022/07/28 10:21:27;;;;;;;5.20;4.43;;;;;;;28.23;81.88;91009.81;5010761;28;20053;-67
2022/07/28 10:23:58;;;;;;;6.75;4.95;;;;;;;28.01;77.24;91007.44;5010455;28;20523;-68
2022/07/28 10:26:42;;;;;;;7.60;5.35;;;;;;;27.71;78.33;91012.94;5010535;28;20111;-69
2022/07/28 10:29:12;;;;;;;6.25;5.03;;;;;;;26.66;100.00;91013.78;5010410;28;20260;-69
2022/07/28 10:31:48;;;;;;;9.32;5.97;;;;;;;26.10;100.00;91004.91;5010543;28;20140;-66
2022/07/28 10:34:21;;;;;;;7.75;5.32;;;;;;;25.68;100.00;91004.06;5010804;28;20108;-67
2022/07/28 10:36:49;;;;;;;9.37;5.60;;;;;;;25.52;100.00;91014.63;5010594;28;20041;-67
2022/07/28 10:39:18;;;;;;;7.68;5.95;;;;;;;25.61;100.00;91004.09;5009929;28;20293;-67
2022/07/28 10:41:45;;;;;;;7.10;5.50;;;;;;;25.83;100.00;91004.72;5010825;28;20042;-65
2022/07/28 10:44:17;;;;;;;7.75;5.43;;;;;;;26.21;100.00;91002.88;5010487;28;20041;-67
2022/07/28 10:46:43;;;;;;;7.72;5.63;;;;;;;26.41;100.00;91006.63;5010573;28;20095;-67
2022/07/28 10:49:10;;;;;;;7.72;5.60;;;;;;;26.58;100.00;91015.03;5009101;28;20041;-67
2022/07/28 10:51:43;;;;;;;8.38;5.57;;;;;;;26.86;100.00;91020.22;4991328;28;20069;-66
2022/07/28 10:54:09;;;;;;;;;;;;;;;27.34;84.58;91019.28;4992970;28;20049;-67
2022/07/28 10:56:50;;;;;;;5.63;4.93;;;;;;;27.74;83.08;91001.97;4994515;28;19918;-66
2022/07/28 10:59:25;;;;;;;6.68;5.07;;;;;;;28.41;76.75;91006.84;4994679;28;20026;-66
2022/07/28 11:01:51;;;;;;;6.18;4.95;;;;;;;31.61;61.43;91007.84;4994533;28;20046;-66
2022/07/28 11:04:45;;;;;;;5.40;4.65;;;;;;;31.95;57.58;90999.00;4994517;28;20038;-67
2022/07/28 11:07:13;;;;;;;8.10;6.13;;;;;;;34.69;54.49;91011.44;4994485;28;20035;-68
2022/07/28 11:09:39;;;;;;;6.07;4.68;;;;;;;36.62;45.12;91011.34;4992909;28;20409;-67
2022/07/28 11:12:05;;;;;;;5.47;4.53;;;;;;;35.80;47.35;91004.75;4994361;28;20161;-67
2022/07/28 11:14:36;;;;;;;5.53;4.70;;;;;;;35.54;48.81;91003.59;4994319;28;20176;-66
2022/07/28 11:17:04;;;;;;;6.22;5.00;;;;;;;36.96;43.27;90999.75;4994303;28;20402;-67
2022/07/28 11:19:29;;;;;;;6.00;4.63;;;;;;;36.09;41.02;90995.94;4994055;28;20033;-67
2022/07/28 11:22:13;;;;;;;5.35;4.80;;;;;;;34.25;45.43;90985.97;4993870;28;20038;-67
2022/07/28 11:24:57;;;;;;;6.20;5.10;;;;;;;32.68;47.43;90997.13;4994087;28;20038;-67
2022/07/28 11:27:40;;;;;;;5.68;4.63;;;;;;;31.56;50.31;90980.88;4994078;28;20121;-67
2022/07/28 11:30:31;;;;;;;5.90;4.95;;;;;;;30.66;51.83;90985.28;4994082;28;20523;-67
2022/07/28 11:32:58;;;;;;;5.68;4.60;;;;;;;29.87;53.62;90988.34;4993933;28;20034;-67